Time;durP1;ratioP1;P1;durP2;ratioP2;P2;SDS_P1;SDS_P2;PMS_P1;PMS_P2;Temp;Humidity;BMP_temperature;BMP_pressure;BME280_temperature;BME280_humidity;BME280_pressure;Samples;Min_cycle;Max_cycle;Signal;HPM_P1;HPM_P2
2022/05/03 00:01:03;;;;;;;10.77;6.50;;;11.00;1.00;;;;;;5116200;28;20178;-72
2022/05/03 00:03:44;;;;;;;6.93;6.27;;;10.90;1.00;;;;;;5116161;28;20193;-72
2022/05/03 00:06:30;;;;;;;9.40;6.40;;;10.90;1.00;;;;;;5116262;28;20167;-72
2022/05/03 00:09:07;;;;;;;7.43;6.60;;;10.80;1.00;;;;;;5116125;28;20179;-71
2022/05/03 00:11:45;;;;;;;7.90;6.10;;;10.80;1.00;;;;;;5116200;28;20301;-72
2022/05/03 00:14:16;;;;;;;7.00;6.37;;;10.80;1.00;;;;;;5116262;28;20178;-71
2022/05/03 00:16:44;;;;;;;10.80;6.53;;;10.80;1.00;;;;;;5116080;28;20179;-71
2022/05/03 00:19:10;;;;;;;8.17;6.60;;;10.80;1.00;;;;;;5115547;28;20639;-72
2022/05/03 00:21:37;;;;;;;15.47;6.80;;;10.90;1.00;;;;;;5116438;28;20171;-71
2022/05/03 00:24:05;;;;;;;7.40;6.27;;;10.90;1.00;;;;;;5116075;28;20170;-71
2022/05/03 00:26:32;;;;;;;8.30;6.73;;;10.80;1.00;;;;;;5115929;28;20171;-71
2022/05/03 00:28:58;;;;;;;7.30;6.60;;;10.80;1.00;;;;;;5115960;28;20702;-71
2022/05/03 00:31:26;;;;;;;8.23;6.67;;;10.60;1.00;;;;;;5115620;28;20195;-72
2022/05/03 00:33:54;;;;;;;7.17;6.53;;;10.60;1.00;;;;;;5115448;28;20277;-71
2022/05/03 00:36:20;;;;;;;8.90;6.60;;;10.60;1.00;;;;;;5115808;28;20710;-71
2022/05/03 00:38:46;;;;;;;8.73;6.80;;;10.50;1.00;;;;;;5115853;28;20159;-71
2022/05/03 00:41:29;;;;;;;10.53;6.97;;;10.50;1.00;;;;;;5115660;28;20175;-71
2022/05/03 00:44:03;;;;;;;11.43;7.30;;;10.50;1.00;;;;;;5115773;28;20168;-71
2022/05/03 00:46:36;;;;;;;9.37;7.17;;;10.50;1.00;;;;;;5115491;28;20236;-71
2022/05/03 00:49:51;;;;;;;8.33;6.77;;;10.50;1.00;;;;;;5115289;28;20168;-71
2022/05/03 00:52:33;;;;;;;8.80;7.13;;;10.40;1.00;;;;;;5087217;28;20239;-71
2022/05/03 00:55:05;;;;;;;7.47;6.70;;;10.30;1.00;;;;;;5115345;28;20159;-71
2022/05/03 00:57:45;;;;;;;8.40;7.40;;;10.20;1.00;;;;;;5115300;28;20335;-71
2022/05/03 01:00:14;;;;;;;7.97;7.17;;;10.20;1.00;;;;;;5115207;28;20171;-70
2022/05/03 01:03:04;;;;;;;7.87;7.17;;;10.10;1.00;;;;;;5114956;28;20156;-72
2022/05/03 01:05:59;;;;;;;8.80;7.53;;;10.20;1.00;;;;;;5115401;28;20212;-71
2022/05/03 01:08:41;;;;;;;11.83;7.87;;;10.20;1.00;;;;;;5072354;28;20176;-71
2022/05/03 01:11:10;;;;;;;10.47;7.57;;;10.20;1.00;;;;;;5115199;28;20524;-71
2022/05/03 01:13:52;;;;;;;11.20;7.40;;;10.20;1.00;;;;;;5115007;28;20254;-70
2022/05/03 01:16:21;;;;;;;8.53;7.30;;;10.20;1.00;;;;;;5115023;28;20210;-71
2022/05/03 01:18:56;;;;;;;9.00;8.00;;;10.20;1.00;;;;;;5115170;28;20255;-71
2022/05/03 01:21:54;;;;;;;16.53;7.30;;;10.20;1.00;;;;;;5115072;28;20170;-72
2022/05/03 01:24:32;;;;;;;7.90;7.07;;;10.20;1.00;;;;;;5114769;28;20179;-71
2022/05/03 01:27:07;;;;;;;9.97;7.47;;;10.00;1.00;;;;;;5115074;28;20193;-71
2022/05/03 01:29:34;;;;;;;7.93;7.13;;;9.90;1.00;;;;;;5114580;28;20198;-70
2022/05/03 01:32:02;;;;;;;9.53;7.93;;;9.80;1.00;;;;;;5114499;28;20256;-70
2022/05/03 01:34:29;;;;;;;11.47;7.17;;;9.80;1.00;;;;;;5114772;28;20228;-71
2022/05/03 01:37:04;;;;;;;7.57;6.87;;;9.80;1.00;;;;;;5114779;28;20167;-73
2022/05/03 01:39:54;;;;;;;8.03;7.33;;;9.70;1.00;;;;;;5114550;28;20198;-71
2022/05/03 01:42:23;;;;;;;7.50;6.77;;;9.70;1.00;;;;;;5114589;28;20167;-70
2022/05/03 01:45:03;;;;;;;8.87;7.03;;;9.70;1.00;;;;;;5114071;28;20644;-71
2022/05/03 01:47:32;;;;;;;12.37;7.53;;;9.80;1.00;;;;;;5114494;28;20266;-72
2022/05/03 01:50:18;;;;;;;9.93;7.60;;;9.70;1.00;;;;;;5114352;28;20163;-71
2022/05/03 01:53:05;;;;;;;8.40;7.50;;;9.80;1.00;;;;;;5114311;28;20199;-72
2022/05/03 01:56:07;;;;;;;9.93;7.30;;;9.70;1.00;;;;;;5114340;28;20262;-72
2022/05/03 01:58:45;;;;;;;8.80;7.10;;;9.70;1.00;;;;;;5114133;28;20309;-71
2022/05/03 02:01:53;;;;;;;9.70;7.60;;;9.70;1.00;;;;;;5113473;28;20547;-71
2022/05/03 02:04:28;;;;;;;15.83;8.50;;;9.60;1.00;;;;;;5095851;28;20187;-71
2022/05/03 02:07:30;;;;;;;8.37;7.47;;;9.60;1.00;;;;;;5114023;28;20253;-71
2022/05/03 02:10:04;;;;;;;10.47;7.50;;;9.60;1.00;;;;;;5100678;28;20194;-71
2022/05/03 02:12:30;;;;;;;9.60;7.63;;;9.70;1.00;;;;;;5113825;28;20308;-69
2022/05/03 02:15:11;;;;;;;9.33;7.63;;;9.60;1.00;;;;;;5113942;28;20163;-72
2022/05/03 02:17:59;;;;;;;12.57;7.73;;;9.60;1.00;;;;;;5114245;28;20163;-71
2022/05/03 02:20:43;;;;;;;9.57;8.57;;;9.50;1.00;;;;;;5114016;28;20163;-72
2022/05/03 02:23:15;;;;;;;13.83;7.67;;;9.50;1.00;;;;;;5113900;28;20212;-71
2022/05/03 02:25:46;;;;;;;11.80;7.93;;;9.50;1.00;;;;;;5095668;28;20171;-70
2022/05/03 02:28:18;;;;;;;9.23;7.80;;;9.50;1.00;;;;;;5113948;28;20177;-70
2022/05/03 02:30:47;;;;;;;10.67;7.67;;;9.40;1.00;;;;;;5113547;28;20186;-71
2022/05/03 02:33:18;;;;;;;11.27;8.03;;;9.40;1.00;;;;;;5113856;28;20226;-70
2022/05/03 02:35:49;;;;;;;10.30;7.73;;;9.40;1.00;;;;;;5113694;28;20181;-71
2022/05/03 02:38:20;;;;;;;11.03;8.40;;;9.30;1.00;;;;;;5113902;28;20610;-71
2022/05/03 02:40:50;;;;;;;9.47;7.70;;;9.30;1.00;;;;;;5113644;28;20221;-71
2022/05/03 02:43:17;;;;;;;8.60;7.80;;;9.30;1.00;;;;;;5113512;28;20167;-71
2022/05/03 02:45:53;;;;;;;10.83;8.07;;;9.20;1.00;;;;;;5113686;28;20585;-71
2022/05/03 02:48:37;;;;;;;10.40;8.60;;;9.20;1.00;;;;;;5113629;28;20155;-71
2022/05/03 02:51:04;;;;;;;11.30;8.57;;;9.20;1.00;;;;;;5113411;28;20758;-71
2022/05/03 02:53:51;;;;;;;11.40;7.80;;;9.20;1.00;;;;;;5113712;28;20239;-71
2022/05/03 02:56:22;;;;;;;11.07;8.97;;;9.20;1.00;;;;;;5113623;28;20171;-70
2022/05/03 02:59:09;;;;;;;11.63;9.00;;;9.30;1.00;;;;;;5112930;28;20246;-71
2022/05/03 03:01:47;;;;;;;10.67;8.60;;;9.20;1.00;;;;;;5113619;28;20209;-71
2022/05/03 03:04:24;;;;;;;11.90;8.90;;;9.10;1.00;;;;;;5113626;28;20163;-70
2022/05/03 03:06:54;;;;;;;11.27;9.40;;;9.10;1.00;;;;;;5113483;28;20174;-71
2022/05/03 03:09:44;;;;;;;10.70;8.97;;;9.00;1.00;;;;;;5113381;28;20179;-71
2022/05/03 03:12:43;;;;;;;14.40;9.73;;;8.90;1.00;;;;;;5101154;28;20233;-72
2022/05/03 03:15:10;;;;;;;11.00;9.53;;;8.90;1.00;;;;;;5117361;28;20171;-72
2022/05/03 03:17:41;;;;;;;12.63;10.00;;;8.90;1.00;;;;;;5117403;28;20167;-72
2022/05/03 03:20:12;;;;;;;12.67;9.27;;;8.90;1.00;;;;;;5117335;28;20253;-72
2022/05/03 03:22:41;;;;;;;10.70;9.20;;;8.90;1.00;;;;;;5117266;28;20171;-71
2022/05/03 03:25:12;;;;;;;13.40;9.47;;;8.80;1.00;;;;;;5117470;28;20172;-72
2022/05/03 03:27:39;;;;;;;10.43;9.43;;;8.80;1.00;;;;;;5117087;28;20669;-71
2022/05/03 03:30:07;;;;;;;13.00;9.70;;;8.80;1.00;;;;;;5116879;28;20187;-71
2022/05/03 03:32:36;;;;;;;11.53;9.20;;;8.80;1.00;;;;;;5116881;28;20234;-72
2022/05/03 03:35:02;;;;;;;10.97;9.13;;;8.80;1.00;;;;;;5116940;28;20637;-71
2022/05/03 03:37:32;;;;;;;12.57;10.07;;;8.70;1.00;;;;;;5116984;28;20167;-71
2022/05/03 03:39:58;;;;;;;11.43;9.13;;;8.70;1.00;;;;;;5116574;28;20690;-71
2022/05/03 03:42:27;;;;;;;12.73;9.60;;;8.80;1.00;;;;;;5116201;28;20250;-71
2022/05/03 03:44:55;;;;;;;11.87;9.50;;;8.70;1.00;;;;;;5116901;28;20609;-71
2022/05/03 03:47:20;;;;;;;14.00;9.80;;;8.80;1.00;;;;;;5117012;28;20679;-71
2022/05/03 03:49:46;;;;;;;12.83;9.33;;;8.80;1.00;;;;;;5116299;28;20163;-70
2022/05/03 03:52:13;;;;;;;13.73;9.20;;;8.80;1.00;;;;;;5116704;28;20687;-72
2022/05/03 03:54:40;;;;;;;15.73;9.97;;;8.70;1.00;;;;;;5116036;28;20178;-72
2022/05/03 03:57:07;;;;;;;14.83;10.17;;;8.70;1.00;;;;;;5115879;28;20219;-71
2022/05/03 03:59:33;;;;;;;18.03;10.07;;;8.80;1.00;;;;;;5116433;28;20248;-71
2022/05/03 04:01:59;;;;;;;13.03;10.00;;;8.80;1.00;;;;;;5116368;28;20171;-71
2022/05/03 04:04:36;;;;;;;13.77;9.57;;;8.70;1.00;;;;;;5116193;28;20198;-72
2022/05/03 04:07:02;;;;;;;13.13;9.83;;;8.70;1.00;;;;;;5116566;28;20171;-72
2022/05/03 04:09:28;;;;;;;14.83;9.57;;;8.70;1.00;;;;;;5116420;28;20171;-71
2022/05/03 04:11:54;;;;;;;17.07;10.17;;;8.60;1.00;;;;;;5115029;28;20583;-71
2022/05/03 04:14:21;;;;;;;11.80;9.40;;;8.60;1.00;;;;;;5116287;28;20232;-71
2022/05/03 04:16:47;;;;;;;11.90;9.20;;;8.60;1.00;;;;;;5115997;28;20253;-71
2022/05/03 04:19:13;;;;;;;9.97;8.90;;;8.60;1.00;;;;;;5116182;28;20168;-71
2022/05/03 04:21:39;;;;;;;13.20;9.87;;;8.70;1.00;;;;;;5115832;28;20179;-71
2022/05/03 04:24:06;;;;;;;10.97;8.67;;;8.70;1.00;;;;;;5115604;28;20171;-71
2022/05/03 04:26:32;;;;;;;11.37;8.57;;;8.70;1.00;;;;;;5115374;28;20167;-72
2022/05/03 04:28:59;;;;;;;16.90;9.57;;;8.80;1.00;;;;;;5115893;28;20170;-71
2022/05/03 04:31:29;;;;;;;12.00;8.77;;;8.80;1.00;;;;;;5114721;28;20198;-71
2022/05/03 04:33:55;;;;;;;12.20;9.10;;;8.90;1.00;;;;;;5114989;28;20178;-74
2022/05/03 04:36:21;;;;;;;14.10;9.27;;;9.00;1.00;;;;;;5115486;28;20171;-70
2022/05/03 04:38:49;;;;;;;12.47;8.53;;;9.20;1.00;;;;;;5115561;28;20174;-72
2022/05/03 04:41:15;;;;;;;12.33;8.67;;;9.40;1.00;;;;;;5115670;28;20232;-71
2022/05/03 04:43:41;;;;;;;9.13;8.23;;;9.70;1.00;;;;;;5115395;28;20630;-71
2022/05/03 04:46:07;;;;;;;8.80;7.63;;;9.90;1.00;;;;;;5115304;28;20175;-70
2022/05/03 04:48:33;;;;;;;15.00;8.90;;;10.20;1.00;;;;;;5115194;28;20222;-71
2022/05/03 04:50:59;;;;;;;11.70;8.97;;;10.60;1.00;;;;;;5114660;28;20173;-72
2022/05/03 04:53:25;;;;;;;13.10;8.60;;;10.70;1.00;;;;;;5114145;28;20698;-71
2022/05/03 04:55:50;;;;;;;9.70;8.27;;;10.90;1.00;;;;;;5115029;28;20250;-72
2022/05/03 04:58:16;;;;;;;10.40;7.80;;;11.30;99.90;;;;;;5114868;28;20243;-72
2022/05/03 05:00:42;;;;;;;11.93;7.50;;;11.90;1.00;;;;;;5114559;28;20698;-72
2022/05/03 05:03:08;;;;;;;8.93;8.07;;;12.10;99.90;;;;;;5114935;28;20216;-71
2022/05/03 05:05:33;;;;;;;8.77;7.60;;;12.50;1.00;;;;;;5114315;28;20179;-72
2022/05/03 05:08:06;;;;;;;8.77;7.50;;;13.20;99.90;;;;;;5114665;28;20250;-71
2022/05/03 05:10:32;;;;;;;8.67;7.67;;;13.40;1.00;;;;;;5114613;28;20517;-73
2022/05/03 05:13:00;;;;;;;8.37;7.67;;;14.00;1.00;;;;;;5113708;28;20199;-72
2022/05/03 05:15:27;;;;;;;11.83;7.50;;;14.70;99.90;;;;;;5114687;28;20220;-71
2022/05/03 05:17:54;;;;;;;7.93;7.13;;;15.40;1.00;;;;;;5114131;28;20163;-71
2022/05/03 05:20:21;;;;;;;8.33;7.10;;;16.00;1.00;;;;;;5114063;28;20198;-72
2022/05/03 05:22:46;;;;;;;13.00;7.67;;;16.90;1.00;;;;;;5113756;28;20622;-73
2022/05/03 05:25:13;;;;;;;14.80;8.23;;;18.00;99.90;;;;;;5095182;28;20567;-73
2022/05/03 05:27:39;;;;;;;17.10;7.97;;;18.20;99.90;;;;;;5113560;28;20201;-74
2022/05/03 05:30:09;;;;;;;13.67;7.73;;;18.30;99.90;;;;;;5113378;28;20263;-74
2022/05/03 05:32:35;;;;;;;15.77;8.07;;;17.70;99.90;;;;;;5113101;28;20794;-73
2022/05/03 05:35:01;;;;;;;11.87;7.30;;;17.10;99.90;;;;;;5111940;28;20171;-74
2022/05/03 05:37:27;;;;;;;14.47;7.73;;;17.00;99.90;;;;;;5112705;28;20164;-74
2022/05/03 05:39:53;;;;;;;10.97;7.13;;;17.30;99.90;;;;;;5113419;28;20170;-74
2022/05/03 05:42:18;;;;;;;18.80;7.53;;;17.20;99.90;;;;;;5113710;28;20213;-75
2022/05/03 05:44:44;;;;;;;11.97;8.10;;;17.80;99.90;;;;;;5113282;28;20242;-75
2022/05/03 05:47:09;;;;;;;14.27;8.57;;;18.30;99.90;;;;;;5112873;28;20171;-75
2022/05/03 05:49:35;;;;;;;20.40;8.50;;;19.00;99.90;;;;;;5112518;28;20195;-76
2022/05/03 05:54:45;;;;;;;14.82;8.30;;;19.10;99.90;;;;;;5113395;28;20251;-78
2022/05/03 05:57:11;;;;;;;9.82;8.05;;;19.80;99.90;;;;;;5094280;28;20325;-79
2022/05/03 05:59:36;;;;;;;11.10;7.43;;;20.30;99.90;;;;;;5113009;28;20170;-79
2022/05/03 06:02:02;;;;;;;9.88;7.10;;;21.40;99.90;;;;;;5112710;28;20205;-79
2022/05/03 06:04:28;;;;;;;11.32;7.65;;;22.00;99.90;;;;;;5115892;28;20170;-79
2022/05/03 06:06:55;;;;;;;10.48;7.55;;;22.70;99.90;;;;;;5112570;28;20258;-78
2022/05/03 06:09:20;;;;;;;11.32;7.53;;;21.60;99.90;;;;;;5112509;28;20167;-75
2022/05/03 06:11:46;;;;;;;11.13;9.23;;;21.30;99.90;;;;;;5112535;28;20677;-77
2022/05/03 06:14:11;;;;;;;9.93;7.63;;;22.30;99.90;;;;;;5112064;28;20561;-79
2022/05/03 06:16:57;;;;;;;11.77;8.48;;;22.60;99.90;;;;;;5112461;28;20228;-80
2022/05/03 06:19:24;;;;;;;10.45;7.70;;;23.30;99.90;;;;;;5113170;28;20231;-81
2022/05/03 06:21:50;;;;;;;9.95;7.13;;;23.60;99.90;;;;;;5094007;28;20167;-81
2022/05/03 06:24:16;;;;;;;10.35;7.82;;;24.10;99.90;;;;;;5112284;28;20268;-80
2022/05/03 06:26:41;;;;;;;10.98;7.75;;;24.70;99.90;;;;;;5093793;28;20622;-79
2022/05/03 06:29:08;;;;;;;11.07;7.75;;;24.70;99.90;;;;;;5102454;28;20558;-81
2022/05/03 06:31:38;;;;;;;9.68;7.47;;;25.00;99.90;;;;;;5096146;28;20195;-80
2022/05/03 06:34:05;;;;;;;9.02;7.65;;;24.90;99.90;;;;;;5113139;28;20175;-80
2022/05/03 06:36:31;;;;;;;12.75;7.70;;;24.50;95.60;;;;;;5108444;28;20163;-80
2022/05/03 06:38:57;;;;;;;8.43;7.63;;;24.70;97.80;;;;;;5090984;28;20193;-81
2022/05/03 06:41:22;;;;;;;10.20;7.20;;;24.80;94.10;;;;;;5093102;28;20519;-80
2022/05/03 06:43:48;;;;;;;17.40;6.93;;;24.10;91.60;;;;;;5094484;28;20766;-78
2022/05/03 06:46:14;;;;;;;14.07;7.20;;;23.50;94.80;;;;;;5095209;28;20186;-79
2022/05/03 06:48:40;;;;;;;12.98;7.63;;;23.30;93.60;;;;;;5100628;28;20186;-80
2022/05/03 06:51:06;;;;;;;15.48;7.35;;;21.40;98.80;;;;;;5110292;28;20172;-81
2022/05/03 06:53:32;;;;;;;17.55;7.35;;;22.10;99.90;;;;;;5111442;28;20263;-82
2022/05/03 06:55:58;;;;;;;14.95;7.32;;;22.70;97.20;;;;;;5110677;28;20266;-80
2022/05/03 06:58:25;;;;;;;11.48;7.18;;;23.40;95.20;;;;;;5110731;28;20264;-81
2022/05/03 07:00:50;;;;;;;13.82;7.07;;;23.10;94.80;;;;;;5110220;28;20190;-80
2022/05/03 07:03:19;;;;;;;11.05;7.45;;;23.30;90.60;;;;;;5111109;28;20167;-81
2022/05/03 07:05:44;;;;;;;12.63;7.07;;;23.90;91.90;;;;;;5111673;28;20266;-80
2022/05/03 07:08:10;;;;;;;15.07;7.10;;;24.50;88.30;;;;;;5110612;28;20258;-79
2022/05/03 07:10:41;;;;;;;12.07;6.32;;;24.60;85.20;;;;;;5111595;28;20219;-79
2022/05/03 07:13:13;;;;;;;17.92;7.00;;;23.30;80.50;;;;;;5111219;28;20242;-79
2022/05/03 07:15:39;;;;;;;13.75;7.07;;;24.20;78.70;;;;;;5118572;28;20171;-78
2022/05/03 07:23:33;;;;;;;14.48;8.20;;;27.90;55.10;;;;;;5104265;28;20186;-76
2022/05/03 07:25:59;;;;;;;12.25;7.65;;;28.80;41.10;;;;;;5111159;28;20176;-77
2022/05/03 07:28:25;;;;;;;8.63;6.93;;;28.90;35.60;;;;;;5093040;28;20190;-76
2022/05/03 07:30:51;;;;;;;9.43;5.88;;;29.40;29.70;;;;;;5112063;28;20227;-75
2022/05/03 07:33:17;;;;;;;11.10;6.57;;;30.10;24.50;;;;;;5109781;28;20704;-78
2022/05/03 07:35:43;;;;;;;8.85;5.60;;;29.90;16.40;;;;;;5111463;28;20634;-75
2022/05/03 07:38:09;;;;;;;8.88;5.97;;;30.20;18.60;;;;;;5111425;28;20535;-78
2022/05/03 07:40:34;;;;;;;8.30;5.95;;;29.90;14.10;;;;;;5110308;28;20186;-76
2022/05/03 07:43:03;;;;;;;6.63;5.90;;;30.30;9.90;;;;;;5109721;28;20246;-78
2022/05/03 07:45:29;;;;;;;7.40;5.88;;;30.20;11.70;;;;;;5111617;28;20195;-78
2022/05/03 07:47:54;;;;;;;6.40;5.70;;;30.20;9.80;;;;;;5106921;28;20693;-76
2022/05/03 07:50:20;;;;;;;6.32;5.72;;;30.40;8.00;;;;;;5110647;28;20765;-75
2022/05/03 07:52:46;;;;;;;9.18;6.35;;;30.30;7.60;;;;;;5110120;28;20203;-76
2022/05/03 07:55:11;;;;;;;8.52;5.22;;;30.30;6.00;;;;;;5110639;28;20171;-76
2022/05/03 07:57:37;;;;;;;5.97;5.47;;;30.70;4.80;;;;;;5110887;28;20264;-75
2022/05/03 08:00:05;;;;;;;8.50;5.60;;;30.90;2.80;;;;;;5113573;28;20224;-76
2022/05/03 08:02:31;;;;;;;7.00;6.00;;;31.10;1.00;;;;;;5114488;28;20194;-79
2022/05/03 08:04:56;;;;;;;7.60;5.57;;;31.50;1.00;;;;;;5096129;28;20611;-76
2022/05/03 08:07:22;;;;;;;5.57;4.82;;;30.80;1.00;;;;;;5112834;28;20175;-75
2022/05/03 08:09:53;;;;;;;4.80;4.30;;;30.50;1.00;;;;;;5113904;28;20179;-76
2022/05/03 08:12:19;;;;;;;5.15;4.78;;;30.60;1.00;;;;;;5113939;28;20203;-75
2022/05/03 08:14:46;;;;;;;10.38;4.70;;;28.00;1.00;;;;;;5113065;28;20240;-75
2022/05/03 08:17:12;;;;;;;5.55;4.50;;;28.40;1.00;;;;;;5112345;28;20177;-78
2022/05/03 08:19:37;;;;;;;5.45;4.50;;;29.10;9.70;;;;;;5114526;28;20163;-77
2022/05/03 08:22:03;;;;;;;5.45;4.38;;;30.40;1.00;;;;;;5114410;28;20630;-76
2022/05/03 08:24:29;;;;;;;5.30;4.80;;;30.40;1.00;;;;;;5113964;28;20195;-79
2022/05/03 08:26:55;;;;;;;6.57;5.05;;;30.70;1.00;;;;;;5116156;28;20183;-76
2022/05/03 08:29:20;;;;;;;8.20;6.10;;;31.00;1.00;;;;;;5101691;28;20203;-76
2022/05/03 08:31:47;;;;;;;13.70;6.47;;;30.50;1.00;;;;;;5120763;27;20290;-78
2022/05/03 08:34:13;;;;;;;15.85;6.60;;;30.60;1.00;;;;;;5090940;28;20312;-76
2022/05/03 08:36:39;;;;;;;10.02;6.32;;;30.00;1.00;;;;;;5111860;28;20650;-76
2022/05/03 08:42:02;;;;;;;6.72;4.70;;;30.00;1.00;;;;;;5118338;28;20214;-78
2022/05/03 08:44:32;;;;;;;6.32;4.90;;;28.90;1.00;;;;;;5116178;28;20163;-79
2022/05/03 08:46:59;;;;;;;5.93;5.45;;;28.80;1.00;;;;;;5113568;28;20200;-78
2022/05/03 08:49:36;;;;;;;6.68;6.10;;;27.20;1.00;;;;;;5115649;28;20576;-77
2022/05/03 08:52:05;;;;;;;6.40;5.80;;;26.70;2.90;;;;;;5105777;28;20681;-77
2022/05/03 08:54:32;;;;;;;6.10;5.70;;;26.40;3.60;;;;;;5113870;28;20213;-78
2022/05/03 08:56:57;;;;;;;6.10;5.63;;;26.30;1.00;;;;;;5112901;28;20238;-76
2022/05/03 08:59:24;;;;;;;6.18;5.57;;;27.50;1.00;;;;;;5112825;28;20205;-77
2022/05/03 09:01:50;;;;;;;6.45;5.40;;;28.50;1.00;;;;;;5113387;28;20650;-76
2022/05/03 09:04:15;;;;;;;6.97;5.88;;;28.40;1.00;;;;;;5111355;28;20198;-78
2022/05/03 09:06:48;;;;;;;6.90;6.20;;;27.00;1.00;;;;;;5106433;28;20236;-78
2022/05/03 09:09:15;;;;;;;7.80;5.97;;;25.20;7.60;;;;;;5101808;28;20176;-80
2022/05/03 09:11:46;;;;;;;6.43;5.78;;;25.80;7.80;;;;;;5106132;28;20283;-76
2022/05/03 09:14:14;;;;;;;6.90;5.75;;;25.60;6.50;;;;;;5106748;28;20202;-80
2022/05/03 09:16:49;;;;;;;8.02;6.00;;;24.80;8.40;;;;;;5108678;28;20167;-77
2022/05/03 09:19:25;;;;;;;7.72;6.13;;;24.80;9.40;;;;;;5108623;28;20182;-77
2022/05/03 09:24:57;;;;;;;6.32;5.70;;;24.20;17.00;;;;;;5114425;28;20299;-77
2022/05/03 09:27:24;;;;;;;6.75;6.15;;;23.00;18.60;;;;;;5108676;28;20180;-76
2022/05/03 09:30:07;;;;;;;6.25;5.72;;;22.50;21.50;;;;;;5111073;28;20226;-76
2022/05/03 09:32:35;;;;;;;6.43;5.15;;;23.00;24.80;;;;;;5109171;28;20213;-77
2022/05/03 09:35:01;;;;;;;5.82;5.10;;;24.80;21.90;;;;;;5110059;28;20174;-78
2022/05/03 09:37:42;;;;;;;5.53;5.03;;;26.10;14.10;;;;;;5111671;28;20221;-78
2022/05/03 09:40:09;;;;;;;5.72;5.10;;;26.10;14.20;;;;;;5113277;28;20167;-76
2022/05/03 09:42:36;;;;;;;5.50;5.00;;;26.10;13.90;;;;;;5112482;28;20178;-77
2022/05/03 09:45:05;;;;;;;6.75;5.13;;;25.60;13.20;;;;;;5111888;28;20639;-79
2022/05/03 09:47:51;;;;;;;5.85;5.40;;;26.30;13.50;;;;;;5111643;28;20650;-79
2022/05/03 09:50:29;;;;;;;8.55;5.70;;;27.30;26.30;;;;;;5113907;28;20267;-78
2022/05/03 09:53:07;;;;;;;6.38;5.45;;;27.80;5.40;;;;;;5104553;28;20252;-77
2022/05/03 09:55:36;;;;;;;6.57;6.05;;;26.40;13.20;;;;;;5108615;28;20175;-76
2022/05/03 09:58:04;;;;;;;8.10;6.90;;;26.80;10.50;;;;;;5110377;28;20279;-80
2022/05/03 10:00:33;;;;;;;7.63;6.13;;;27.80;9.40;;;;;;5111841;28;20189;-79
2022/05/03 10:03:01;;;;;;;8.27;6.30;;;27.60;9.70;;;;;;5089163;28;20512;-76
2022/05/03 10:05:28;;;;;;;5.60;5.10;;;28.30;8.70;;;;;;5107035;28;20189;-76
2022/05/03 10:07:54;;;;;;;5.72;5.22;;;28.80;5.30;;;;;;5090217;28;20181;-79
2022/05/03 10:10:22;;;;;;;6.40;5.80;;;29.60;2.70;;;;;;5111005;28;20618;-78
2022/05/03 10:12:50;;;;;;;6.18;5.53;;;29.20;3.20;;;;;;5111247;28;20203;-79
2022/05/03 10:21:00;;;;;;;6.38;5.85;;;27.30;7.30;;;;;;5111037;28;20652;-77
2022/05/03 10:23:32;;;;;;;8.35;6.38;;;27.60;7.60;;;;;;5109248;28;20735;-81
2022/05/03 10:26:09;;;;;;;5.93;5.45;;;28.00;7.00;;;;;;5106942;28;20193;-77
2022/05/03 10:29:09;;;;;;;7.18;5.47;;;24.40;13.80;;;;;;5104880;28;20191;-74
2022/05/03 10:32:04;;;;;;;7.43;5.90;;;23.20;19.10;;;;;;5107336;28;20250;-77
2022/05/03 10:35:03;;;;;;;8.68;7.20;;;22.50;25.50;;;;;;5111851;28;20171;-76
2022/05/03 10:37:29;;;;;;;7.22;6.60;;;22.20;28.30;;;;;;5099218;28;20175;-76
2022/05/03 10:39:56;;;;;;;8.18;5.80;;;22.60;25.80;;;;;;5111169;28;20167;-76
2022/05/03 10:42:27;;;;;;;7.13;5.28;;;23.10;40.60;;;;;;5111168;28;20319;-78
2022/05/03 10:44:53;;;;;;;6.55;6.05;;;24.30;22.20;;;;;;5104175;28;20236;-83
2022/05/03 10:47:20;;;;;;;8.07;6.22;;;24.10;20.20;;;;;;5083872;28;20159;-79
2022/05/03 10:50:23;;;;;;;8.13;6.25;;;23.80;23.90;;;;;;5102890;28;20198;-80
2022/05/03 10:53:07;;;;;;;11.82;6.68;;;24.30;23.70;;;;;;5001334;28;20241;-76
2022/05/03 10:55:35;;;;;;;6.65;6.15;;;25.20;22.80;;;;;;4999396;28;20174;-79
2022/05/03 10:58:19;;;;;;;7.45;6.75;;;25.00;24.30;;;;;;4995781;28;20223;-79
2022/05/03 11:01:11;;;;;;;7.18;6.47;;;25.40;18.40;;;;;;5000642;28;20217;-80
2022/05/03 11:04:01;;;;;;;8.48;7.50;;;25.50;22.30;;;;;;4998482;28;20184;-79
2022/05/03 11:06:26;;;;;;;7.20;5.28;;;25.50;22.80;;;;;;4993989;28;20179;-72
2022/05/03 11:08:58;;;;;;;6.53;5.95;;;25.20;22.00;;;;;;4992526;28;20547;-76
2022/05/03 11:14:05;;;;;;;7.60;5.90;;;24.50;23.90;;;;;;4997929;28;20673;-73
2022/05/03 11:16:40;;;;;;;6.65;6.15;;;24.30;22.50;;;;;;4977035;28;20643;-77
2022/05/03 11:19:13;;;;;;;7.90;7.10;;;24.70;21.20;;;;;;5005069;28;20174;-74
2022/05/03 11:21:40;;;;;;;7.65;6.78;;;24.40;25.70;;;;;;5004654;28;20717;-77
2022/05/03 11:24:15;;;;;;;6.70;6.00;;;24.90;24.70;;;;;;4996300;28;20198;-75
2022/05/03 11:26:41;;;;;;;6.78;6.15;;;25.10;21.90;;;;;;5056582;28;20187;-75
2022/05/03 11:29:07;;;;;;;7.03;6.32;;;24.20;24.40;;;;;;5110490;28;20194;-77
2022/05/03 11:31:33;;;;;;;6.82;6.22;;;23.90;2.00;;;;;;5108623;28;20171;-74
2022/05/03 11:33:59;;;;;;;9.10;7.05;;;23.40;29.60;;;;;;5112198;28;20656;-72
2022/05/03 11:36:27;;;;;;;9.88;6.50;;;24.50;28.50;;;;;;5112399;28;20163;-71
2022/05/03 11:38:53;;;;;;;8.27;6.47;;;24.30;25.70;;;;;;5104647;28;20175;-74
2022/05/03 11:41:23;;;;;;;6.28;5.78;;;24.80;28.30;;;;;;5109294;28;20175;-74
2022/05/03 11:43:49;;;;;;;8.00;5.80;;;24.70;28.30;;;;;;5111380;28;20164;-73
2022/05/03 11:46:20;;;;;;;9.02;6.10;;;24.60;25.20;;;;;;5112685;28;20508;-77
2022/05/03 11:48:59;;;;;;;6.90;6.20;;;23.90;31.40;;;;;;5105069;28;20175;-74
2022/05/03 11:57:19;;;;;;;6.65;6.05;;;21.70;40.30;;;;;;5106462;28;20217;-72
2022/05/03 11:59:45;;;;;;;6.40;5.78;;;20.40;51.40;;;;;;5113522;28;20576;-75
2022/05/03 12:02:38;;;;;;;6.57;5.93;;;20.10;60.30;;;;;;5112229;28;20167;-73
2022/05/03 12:05:12;;;;;;;6.80;6.20;;;20.70;57.70;;;;;;5089939;28;20171;-75
2022/05/03 12:07:41;;;;;;;8.10;6.65;;;20.30;67.20;;;;;;5112215;28;20162;-74
2022/05/03 12:10:26;;;;;;;8.23;6.53;;;20.70;86.40;;;;;;5113024;28;20179;-72
2022/05/03 12:13:08;;;;;;;6.82;5.60;;;21.30;71.70;;;;;;5107237;28;20203;-75
2022/05/03 12:15:45;;;;;;;8.43;5.60;;;21.60;69.50;;;;;;5115135;28;20179;-76
2022/05/03 12:18:15;;;;;;;6.80;6.10;;;22.00;67.80;;;;;;5114421;28;20179;-76
2022/05/03 12:20:57;;;;;;;7.03;6.32;;;21.40;63.10;;;;;;5113721;28;20280;-77
2022/05/03 12:23:23;;;;;;;7.15;6.53;;;20.40;77.30;;;;;;5114299;28;20387;-76
2022/05/03 12:25:57;;;;;;;7.35;6.65;;;20.60;61.40;;;;;;5114262;28;20175;-77
2022/05/03 12:28:36;;;;;;;6.85;6.15;;;20.80;88.00;;;;;;5114051;28;20225;-76
2022/05/03 12:31:04;;;;;;;6.82;6.13;;;21.40;85.10;;;;;;5113769;28;20201;-76
2022/05/03 12:33:30;;;;;;;8.73;5.57;;;21.90;81.20;;;;;;5114270;28;20217;-76
2022/05/03 12:35:56;;;;;;;6.25;5.68;;;21.50;35.90;;;;;;5112968;28;20258;-76
2022/05/03 12:38:24;;;;;;;6.85;5.88;;;21.70;51.20;;;;;;5113704;28;20260;-77
2022/05/03 12:40:55;;;;;;;6.38;5.78;;;21.10;74.30;;;;;;5113217;28;20302;-76
2022/05/03 12:43:26;;;;;;;10.52;6.38;;;20.40;59.90;;;;;;5096298;28;20178;-76
2022/05/03 12:46:07;;;;;;;7.30;6.50;;;20.70;80.50;;;;;;5114593;28;20175;-75
2022/05/03 12:48:36;;;;;;;6.30;5.20;;;21.10;92.60;;;;;;5113764;28;20175;-75
2022/05/03 12:51:03;;;;;;;9.95;7.10;;;21.40;91.80;;;;;;5113467;28;20163;-74
2022/05/03 12:53:33;;;;;;;6.95;6.25;;;21.60;92.00;;;;;;5113245;28;20291;-74
2022/05/03 12:58:21;;;;;;;8.27;7.00;;;21.90;72.40;;;;;;5113576;28;20182;-73
2022/05/03 12:58:46;;;;;;;6.55;5.95;;;21.60;83.00;;;;;;5112843;28;20222;-73
2022/05/03 13:01:12;;;;;;;7.20;6.50;;;21.90;45.40;;;;;;5113484;28;20289;-73
2022/05/03 13:03:38;;;;;;;7.13;6.43;;;21.90;92.70;;;;;;5113848;28;20170;-72
2022/05/03 13:06:04;;;;;;;9.38;7.70;;;22.00;90.00;;;;;;5100346;28;20190;-72
2022/05/03 13:08:30;;;;;;;9.07;7.38;;;21.90;90.40;;;;;;5112939;28;20183;-74
2022/05/03 13:10:55;;;;;;;10.38;8.27;;;21.90;91.60;;;;;;5114115;28;20168;-73
2022/05/03 13:13:21;;;;;;;8.30;6.20;;;22.10;86.20;;;;;;5113404;28;20666;-73
2022/05/03 13:15:47;;;;;;;8.65;7.30;;;21.40;41.50;;;;;;5101256;28;20187;-74
2022/05/03 13:18:13;;;;;;;8.13;7.38;;;21.10;91.90;;;;;;5108145;28;20179;-74
2022/05/03 13:20:39;;;;;;;9.10;8.10;;;20.20;47.40;;;;;;5112800;28;20255;-75
2022/05/03 13:23:05;;;;;;;9.15;7.97;;;19.90;99.90;;;;;;5113092;28;20622;-74
2022/05/03 13:25:30;;;;;;;9.70;8.48;;;19.90;92.10;;;;;;5112935;28;20213;-73
2022/05/03 13:27:56;;;;;;;11.80;7.88;;;19.90;99.90;;;;;;5113516;28;20183;-73
2022/05/03 13:30:23;;;;;;;8.77;7.87;;;19.60;99.90;;;;;;5113132;28;20654;-72
2022/05/03 13:32:49;;;;;;;8.90;7.60;;;19.50;99.90;;;;;;5112269;28;20203;-72
2022/05/03 13:35:14;;;;;;;10.05;8.05;;;19.80;99.90;;;;;;5112065;28;20236;-74
2022/05/03 13:40:30;;;;;;;11.07;7.80;;;20.40;99.90;;;;;;5109223;28;20222;-73